Time;durP1;ratioP1;P1;durP2;ratioP2;P2;SDS_P1;SDS_P2;PMS_P1;PMS_P2;Temp;Humidity;BMP_temperature;BMP_pressure;BME280_temperature;BME280_humidity;BME280_pressure;Samples;Min_cycle;Max_cycle;Signal;HPM_P1;HPM_P2
2024/01/18 00:01:59;;;;;;;21.52;13.18;;;-1.10;99.90;;;;;;4876918;29;20118;-72
2024/01/18 00:04:25;;;;;;;24.67;12.95;;;-1.10;99.90;;;;;;4851257;29;20060;-72
2024/01/18 00:06:51;;;;;;;22.60;14.75;;;-1.20;99.90;;;;;;4851607;29;20053;-72
2024/01/18 00:09:17;;;;;;;20.30;12.80;;;-1.20;99.90;;;;;;4866921;29;20131;-72
2024/01/18 00:11:42;;;;;;;26.83;13.77;;;-1.20;99.90;;;;;;4851065;29;20160;-72
2024/01/18 00:14:08;;;;;;;26.40;13.95;;;-1.20;99.90;;;;;;4848106;29;20041;-72
2024/01/18 00:16:34;;;;;;;22.65;15.43;;;-1.30;99.90;;;;;;4852967;29;20049;-72
2024/01/18 00:19:00;;;;;;;22.63;14.48;;;-1.20;99.90;;;;;;4843237;29;20132;-72
2024/01/18 00:21:26;;;;;;;22.30;13.88;;;-1.30;99.90;;;;;;4854370;29;20041;-72
2024/01/18 00:23:51;;;;;;;26.13;14.95;;;-1.30;99.90;;;;;;4855665;29;20537;-72
2024/01/18 00:26:17;;;;;;;22.05;14.65;;;-1.30;99.90;;;;;;4858602;29;20497;-72
2024/01/18 00:28:42;;;;;;;19.67;12.63;;;-1.30;99.90;;;;;;4843384;29;20046;-72
2024/01/18 00:31:08;;;;;;;22.20;14.48;;;-1.30;99.90;;;;;;4852703;29;20069;-72
2024/01/18 00:33:34;;;;;;;22.20;13.68;;;-1.30;99.90;;;;;;4854555;29;20029;-72
2024/01/18 00:35:59;;;;;;;23.45;14.82;;;-1.30;99.90;;;;;;4845031;29;20624;-72
2024/01/18 00:38:25;;;;;;;22.40;14.40;;;-1.30;99.90;;;;;;4849454;29;20065;-72
2024/01/18 00:40:50;;;;;;;23.75;15.60;;;-1.20;99.90;;;;;;4879425;29;20049;-72
2024/01/18 00:43:16;;;;;;;22.65;14.38;;;-1.30;99.90;;;;;;4876220;29;20367;-71
2024/01/18 00:45:42;;;;;;;25.50;15.55;;;-1.30;99.90;;;;;;4890017;29;20394;-72
2024/01/18 00:48:07;;;;;;;26.35;15.05;;;-1.30;99.90;;;;;;4883343;29;20389;-72
2024/01/18 00:50:33;;;;;;;24.70;14.45;;;-1.30;99.90;;;;;;4869804;29;20509;-72
2024/01/18 00:52:58;;;;;;;26.15;15.57;;;-1.30;99.90;;;;;;4873081;29;20056;-72
2024/01/18 00:55:24;;;;;;;21.55;14.07;;;-1.40;99.90;;;;;;4873537;29;20041;-72
2024/01/18 00:57:52;;;;;;;25.90;15.98;;;-1.40;99.90;;;;;;4895727;29;20040;-72
2024/01/18 01:00:17;;;;;;;27.35;15.88;;;-1.50;99.90;;;;;;4880052;29;20045;-72
2024/01/18 01:02:43;;;;;;;23.98;13.95;;;-1.50;99.90;;;;;;4882980;29;20469;-72
2024/01/18 01:05:09;;;;;;;28.58;15.13;;;-1.50;99.90;;;;;;4866410;29;20120;-72
2024/01/18 01:07:34;;;;;;;23.13;14.35;;;-1.50;99.90;;;;;;4865018;29;20133;-72
2024/01/18 01:10:00;;;;;;;21.95;14.07;;;-1.50;99.90;;;;;;4870734;29;20281;-73
2024/01/18 01:12:25;;;;;;;27.15;13.98;;;-1.40;99.90;;;;;;4871474;29;20049;-72
2024/01/18 01:14:51;;;;;;;22.42;14.65;;;-1.40;99.90;;;;;;4876653;29;20049;-72
2024/01/18 01:17:17;;;;;;;24.63;13.38;;;-1.40;99.90;;;;;;4876128;29;20481;-72
2024/01/18 01:19:42;;;;;;;22.77;13.75;;;-1.30;99.90;;;;;;4874053;29;20067;-72
2024/01/18 01:22:08;;;;;;;23.48;13.68;;;-1.30;99.90;;;;;;4871285;29;20595;-72
2024/01/18 01:24:38;;;;;;;20.65;13.57;;;-1.30;99.90;;;;;;4899235;29;20053;-72
2024/01/18 01:27:05;;;;;;;23.40;13.65;;;-1.30;99.90;;;;;;4871461;29;20068;-72
2024/01/18 01:29:30;;;;;;;21.67;12.40;;;-1.30;99.90;;;;;;4864025;29;20045;-72
2024/01/18 01:31:56;;;;;;;22.05;13.93;;;-1.20;99.90;;;;;;4869896;29;20462;-72
2024/01/18 01:34:22;;;;;;;21.63;13.07;;;-1.20;99.90;;;;;;4891940;29;20437;-72
2024/01/18 01:36:47;;;;;;;20.10;12.52;;;-1.30;99.90;;;;;;4874652;29;20041;-72
2024/01/18 01:39:13;;;;;;;18.80;13.20;;;-1.30;99.90;;;;;;4862055;29;20730;-72
2024/01/18 01:41:38;;;;;;;24.17;13.90;;;-1.30;99.90;;;;;;4878191;29;20117;-72
2024/01/18 01:44:05;;;;;;;19.42;11.63;;;-1.30;99.90;;;;;;4877161;29;20106;-72
2024/01/18 01:46:30;;;;;;;20.27;13.20;;;-1.30;99.90;;;;;;4873382;29;20053;-72
2024/01/18 01:49:03;;;;;;;21.17;13.05;;;-1.30;99.90;;;;;;4876919;29;20045;-72
2024/01/18 01:51:38;;;;;;;21.42;13.43;;;-1.30;99.90;;;;;;4884274;29;20045;-72
2024/01/18 01:54:04;;;;;;;20.65;12.25;;;-1.30;99.90;;;;;;4875418;29;20071;-72
2024/01/18 01:56:32;;;;;;;18.45;11.77;;;-1.40;99.90;;;;;;4852146;29;20067;-72
2024/01/18 01:58:58;;;;;;;18.30;12.35;;;-1.40;99.90;;;;;;4874769;29;20059;-72
2024/01/18 02:01:25;;;;;;;24.35;12.90;;;-1.50;99.90;;;;;;4882930;29;20052;-72
2024/01/18 02:03:50;;;;;;;19.70;11.77;;;-1.50;99.90;;;;;;4867375;29;20056;-72
2024/01/18 02:06:17;;;;;;;19.95;11.95;;;-1.50;99.90;;;;;;4868309;29;20222;-72
2024/01/18 02:08:44;;;;;;;20.67;11.87;;;-1.60;99.90;;;;;;4873495;29;20474;-72
2024/01/18 02:11:11;;;;;;;17.30;10.63;;;-1.60;99.90;;;;;;4861718;29;20357;-72
2024/01/18 02:13:39;;;;;;;22.70;11.17;;;-1.60;99.90;;;;;;4853159;29;20090;-72
2024/01/18 02:16:04;;;;;;;;;;;-1.60;99.90;;;;;;4896345;29;20682;-72
2024/01/18 02:18:30;;;;;;;20.70;10.93;;;-1.70;99.90;;;;;;4870686;29;19935;-72
2024/01/18 02:20:56;;;;;;;18.33;10.30;;;-1.70;99.90;;;;;;4879566;29;20053;-72
2024/01/18 02:23:22;;;;;;;20.67;10.32;;;-1.70;99.90;;;;;;4874567;29;20052;-72
2024/01/18 02:25:48;;;;;;;17.42;10.27;;;-1.70;99.90;;;;;;4867272;29;20084;-72
2024/01/18 02:28:15;;;;;;;18.13;10.60;;;-1.80;99.90;;;;;;4868037;29;20072;-72
2024/01/18 02:30:41;;;;;;;20.25;10.98;;;-1.70;99.90;;;;;;4872898;29;20048;-72
2024/01/18 02:33:07;;;;;;;19.45;10.57;;;-1.70;99.90;;;;;;4878059;29;20120;-72
2024/01/18 02:35:33;;;;;;;20.60;10.15;;;-1.70;99.90;;;;;;4870027;29;20129;-72
2024/01/18 02:37:59;;;;;;;13.65;8.65;;;-1.70;99.90;;;;;;4848446;29;20108;-72
2024/01/18 02:40:25;;;;;;;16.65;9.40;;;-1.70;99.90;;;;;;4844959;29;20061;-72
2024/01/18 02:42:50;;;;;;;13.60;8.60;;;-1.70;99.90;;;;;;4867817;29;20148;-72
2024/01/18 02:45:16;;;;;;;20.25;9.63;;;-1.70;99.90;;;;;;4876855;29;20045;-72
2024/01/18 02:47:43;;;;;;;14.32;8.50;;;-1.60;99.90;;;;;;4876004;29;20471;-72
2024/01/18 02:50:09;;;;;;;17.45;8.65;;;-1.60;99.90;;;;;;4873629;29;20048;-72
2024/01/18 02:52:37;;;;;;;13.77;7.80;;;-1.70;99.90;;;;;;4860528;29;20080;-72
2024/01/18 02:55:04;;;;;;;13.60;8.23;;;-1.60;99.90;;;;;;4865547;29;20132;-74
2024/01/18 02:57:30;;;;;;;11.88;6.82;;;-1.60;99.90;;;;;;4869867;29;20053;-75
2024/01/18 02:59:56;;;;;;;12.52;6.57;;;-1.60;99.90;;;;;;4877909;29;20522;-75
2024/01/18 03:02:22;;;;;;;12.07;5.38;;;-1.60;99.90;;;;;;4879157;29;20045;-75
2024/01/18 03:04:47;;;;;;;7.75;4.45;;;-1.60;99.90;;;;;;4857501;29;20081;-75
2024/01/18 03:07:13;;;;;;;9.25;4.18;;;-1.60;99.90;;;;;;4874723;29;20045;-75
2024/01/18 03:09:39;;;;;;;9.77;4.72;;;-1.50;99.90;;;;;;4861291;29;20053;-75
2024/01/18 03:12:04;;;;;;;10.93;4.60;;;-1.50;99.90;;;;;;4867181;29;20074;-75
2024/01/18 03:14:31;;;;;;;9.13;4.22;;;-1.40;99.90;;;;;;4869475;29;20043;-75
2024/01/18 03:16:56;;;;;;;9.20;4.18;;;-1.40;99.90;;;;;;4869347;29;20053;-75
2024/01/18 03:19:22;;;;;;;9.80;4.72;;;-1.30;99.90;;;;;;4877871;29;20071;-75
2024/01/18 03:21:48;;;;;;;9.02;4.65;;;-1.30;99.90;;;;;;4861282;29;20136;-75
2024/01/18 03:24:13;;;;;;;10.35;4.15;;;-1.30;99.90;;;;;;4870885;29;20040;-75
2024/01/18 03:26:39;;;;;;;10.43;5.03;;;-1.20;99.90;;;;;;4890039;29;20056;-75
2024/01/18 03:29:05;;;;;;;7.57;4.05;;;-1.20;99.90;;;;;;4861538;29;20584;-75
2024/01/18 03:31:31;;;;;;;9.95;4.45;;;-1.20;99.90;;;;;;4876248;29;20045;-74
2024/01/18 03:33:56;;;;;;;10.02;4.43;;;-1.20;99.90;;;;;;4853123;29;20053;-75
2024/01/18 03:36:24;;;;;;;7.43;4.20;;;-1.20;99.90;;;;;;4874482;29;20395;-72
2024/01/18 03:38:50;;;;;;;8.75;4.60;;;-1.10;99.90;;;;;;4845823;29;20080;-72
2024/01/18 03:41:16;;;;;;;9.43;4.47;;;-1.10;99.90;;;;;;4859418;29;20076;-72
2024/01/18 03:43:41;;;;;;;7.55;3.65;;;-1.10;99.90;;;;;;4868005;29;20628;-72
2024/01/18 03:46:11;;;;;;;8.70;3.70;;;-1.10;99.90;;;;;;4851480;29;20037;-72
2024/01/18 03:48:37;;;;;;;12.98;4.15;;;-1.10;99.90;;;;;;4883015;29;20072;-70
2024/01/18 03:51:03;;;;;;;9.00;3.50;;;-1.00;99.90;;;;;;4881339;29;20084;-72
2024/01/18 03:53:29;;;;;;;10.35;3.63;;;-1.00;99.90;;;;;;4862623;29;20047;-72
2024/01/18 03:55:54;;;;;;;5.90;3.47;;;-1.00;99.90;;;;;;4862336;29;20038;-72
2024/01/18 03:58:20;;;;;;;8.45;3.80;;;-1.00;99.90;;;;;;4865694;29;20049;-72
2024/01/18 04:00:45;;;;;;;6.47;3.38;;;-1.10;99.90;;;;;;4860026;29;20386;-72
2024/01/18 04:03:11;;;;;;;6.10;3.40;;;-1.10;99.90;;;;;;4877004;29;20117;-72
2024/01/18 04:05:36;;;;;;;8.13;3.50;;;-1.10;99.90;;;;;;4855758;29;20080;-72
2024/01/18 04:08:02;;;;;;;11.75;4.10;;;-1.10;99.90;;;;;;4871172;29;20045;-72
2024/01/18 04:10:28;;;;;;;8.75;3.92;;;-1.10;99.90;;;;;;4875451;29;20040;-72
2024/01/18 04:12:53;;;;;;;7.63;3.28;;;-1.20;99.90;;;;;;4880286;29;20624;-72
2024/01/18 04:15:19;;;;;;;9.07;3.45;;;-1.20;99.90;;;;;;4873480;29;20055;-72
2024/01/18 04:17:45;;;;;;;6.78;3.53;;;-1.30;99.90;;;;;;4872736;29;20509;-72
2024/01/18 04:20:15;;;;;;;8.93;3.65;;;-1.30;99.90;;;;;;4851451;29;20045;-72
2024/01/18 04:22:41;;;;;;;6.00;3.20;;;-1.40;99.90;;;;;;4861726;29;20108;-72
2024/01/18 04:25:07;;;;;;;8.40;3.28;;;-1.50;99.90;;;;;;4864501;29;20044;-72
2024/01/18 04:27:32;;;;;;;5.78;3.33;;;-1.60;99.90;;;;;;4871334;29;20056;-72
2024/01/18 04:29:58;;;;;;;8.85;3.80;;;-1.60;99.90;;;;;;4873451;29;20132;-72
2024/01/18 04:32:23;;;;;;;5.18;3.10;;;-1.60;99.90;;;;;;4866617;29;20049;-72
2024/01/18 04:34:49;;;;;;;9.93;4.10;;;-1.70;99.90;;;;;;4865370;29;20052;-72
2024/01/18 04:37:14;;;;;;;8.55;3.22;;;-1.70;99.90;;;;;;4875763;29;20045;-72
2024/01/18 04:39:40;;;;;;;9.90;2.65;;;-1.70;99.90;;;;;;4852456;29;20094;-72
2024/01/18 04:42:08;;;;;;;6.97;4.07;;;-1.80;99.90;;;;;;4864686;29;20041;-72
2024/01/18 04:44:33;;;;;;;7.57;3.33;;;-1.80;99.90;;;;;;4870877;29;20053;-72
2024/01/18 04:46:59;;;;;;;6.60;3.53;;;-1.80;99.90;;;;;;4871848;29;20663;-72
2024/01/18 04:49:25;;;;;;;8.02;3.00;;;-1.90;99.90;;;;;;4874310;29;20060;-72
2024/01/18 04:51:50;;;;;;;7.60;3.30;;;-1.90;99.90;;;;;;4863373;29;20140;-72
2024/01/18 04:54:16;;;;;;;7.55;3.42;;;-1.90;99.90;;;;;;4867187;29;20087;-72
2024/01/18 04:56:42;;;;;;;6.30;3.28;;;-1.90;99.90;;;;;;4872468;29;20049;-72
2024/01/18 04:59:08;;;;;;;6.25;3.03;;;-1.90;99.90;;;;;;4872654;29;20397;-72
2024/01/18 05:01:38;;;;;;;5.90;2.83;;;-2.00;99.90;;;;;;4870096;29;20120;-72
2024/01/18 05:04:04;;;;;;;5.40;2.75;;;-2.00;99.90;;;;;;4869291;29;20072;-72
2024/01/18 05:06:30;;;;;;;6.45;2.50;;;-2.00;99.90;;;;;;4881280;29;20488;-72
2024/01/18 05:08:55;;;;;;;3.00;1.63;;;-2.00;99.90;;;;;;4865069;29;20074;-72
2024/01/18 05:11:21;;;;;;;6.60;2.20;;;-2.00;99.90;;;;;;4871163;29;20509;-72
2024/01/18 05:13:47;;;;;;;6.30;1.40;;;-2.00;99.90;;;;;;4865399;29;20056;-72
2024/01/18 05:16:13;;;;;;;3.13;1.15;;;-1.90;99.90;;;;;;4850359;29;20129;-72
2024/01/18 05:18:39;;;;;;;2.90;1.53;;;-1.70;99.90;;;;;;4865653;29;20093;-72
2024/01/18 05:21:04;;;;;;;6.88;1.38;;;-1.60;99.90;;;;;;4857226;29;20041;-72
2024/01/18 05:23:30;;;;;;;4.45;1.52;;;-1.50;99.90;;;;;;4852632;29;20045;-72
2024/01/18 05:25:56;;;;;;;5.75;1.10;;;-1.40;99.90;;;;;;4870364;29;20053;-72
2024/01/18 05:28:22;;;;;;;3.03;1.27;;;-1.30;99.90;;;;;;4874848;29;20053;-73
2024/01/18 05:30:50;;;;;;;4.60;1.83;;;-1.20;99.90;;;;;;4858591;29;20096;-72
2024/01/18 05:33:15;;;;;;;4.53;1.05;;;-1.20;99.90;;;;;;4889820;29;20218;-72
2024/01/18 05:35:41;;;;;;;7.47;1.30;;;-1.10;99.90;;;;;;4880538;29;20148;-72
2024/01/18 05:38:07;;;;;;;3.70;1.00;;;-1.10;99.90;;;;;;4868271;29;20054;-72
2024/01/18 05:40:33;;;;;;;4.95;1.10;;;-1.00;99.90;;;;;;4876838;29;20053;-72
2024/01/18 05:42:58;;;;;;;2.13;0.90;;;-0.90;99.90;;;;;;4859030;29;20516;-74
2024/01/18 05:45:25;;;;;;;6.05;1.30;;;-0.90;99.90;;;;;;4872038;29;20041;-72
2024/01/18 05:47:51;;;;;;;2.25;0.73;;;-0.90;99.90;;;;;;4881334;29;20042;-72
2024/01/18 05:50:17;;;;;;;2.95;1.00;;;-0.80;99.90;;;;;;4875909;29;20061;-72
2024/01/18 05:52:42;;;;;;;4.72;1.08;;;-0.80;99.90;;;;;;4878434;29;20077;-72
2024/01/18 05:55:08;;;;;;;4.15;1.00;;;-0.80;99.90;;;;;;4866831;29;20685;-72
2024/01/18 05:57:37;;;;;;;6.85;0.95;;;-0.80;99.90;;;;;;4878883;29;20049;-72
2024/01/18 06:00:05;;;;;;;3.40;1.08;;;-0.80;99.90;;;;;;4875463;29;20452;-72
2024/01/18 06:02:31;;;;;;;8.82;1.00;;;-0.80;99.90;;;;;;4871829;29;20052;-72
2024/01/18 06:04:57;;;;;;;1.85;0.63;;;-0.80;99.90;;;;;;4870515;29;20072;-72
2024/01/18 06:07:24;;;;;;;4.63;1.15;;;-0.80;99.90;;;;;;4875977;29;20466;-72
2024/01/18 06:09:49;;;;;;;2.65;1.10;;;-0.80;99.90;;;;;;4874278;29;20049;-72
2024/01/18 06:12:15;;;;;;;5.28;1.02;;;-0.80;99.90;;;;;;4875925;29;20520;-72
2024/01/18 06:14:42;;;;;;;1.60;0.70;;;-0.70;99.90;;;;;;4852515;29;20057;-72
2024/01/18 06:17:07;;;;;;;3.45;1.10;;;-0.80;99.90;;;;;;4873147;29;20092;-72
2024/01/18 06:19:33;;;;;;;3.63;1.20;;;-0.80;99.90;;;;;;4871536;29;20049;-72
2024/01/18 06:21:59;;;;;;;3.13;1.20;;;-0.80;99.90;;;;;;4868892;29;20060;-72
2024/01/18 06:24:25;;;;;;;4.53;1.25;;;-0.80;99.90;;;;;;4863698;29;20135;-72
2024/01/18 06:26:52;;;;;;;4.18;1.02;;;-0.80;99.90;;;;;;4861336;29;20057;-72
2024/01/18 06:29:17;;;;;;;4.60;1.33;;;-0.90;99.90;;;;;;4870152;29;20048;-72
2024/01/18 06:31:43;;;;;;;4.68;1.30;;;-1.00;99.90;;;;;;4872915;29;20048;-72
2024/01/18 06:34:10;;;;;;;4.53;1.20;;;-1.10;99.90;;;;;;4866406;29;20057;-72
2024/01/18 06:36:37;;;;;;;7.95;1.42;;;-1.10;99.90;;;;;;4885651;29;20041;-72
2024/01/18 06:39:03;;;;;;;2.10;1.27;;;-1.10;99.90;;;;;;4868526;29;20496;-73
2024/01/18 06:41:29;;;;;;;4.72;1.15;;;-1.20;99.90;;;;;;4878845;29;20140;-72
2024/01/18 06:43:55;;;;;;;6.80;1.17;;;-1.20;99.90;;;;;;4874392;29;20046;-72
2024/01/18 06:46:22;;;;;;;2.45;1.27;;;-1.30;99.90;;;;;;4865645;29;20048;-72
2024/01/18 06:48:53;;;;;;;4.18;1.33;;;-1.30;99.90;;;;;;4864950;29;20131;-71
2024/01/18 06:51:22;;;;;;;4.40;1.10;;;-1.30;99.90;;;;;;4860745;29;20048;-73
2024/01/18 06:53:47;;;;;;;4.30;1.00;;;-1.30;99.90;;;;;;4867255;29;20042;-71
2024/01/18 06:56:16;;;;;;;4.30;1.50;;;-1.40;99.90;;;;;;4873103;29;20033;-73
2024/01/18 06:58:43;;;;;;;2.75;1.55;;;-1.40;99.90;;;;;;4858040;29;20049;-73
2024/01/18 07:01:10;;;;;;;3.88;1.45;;;-1.40;99.90;;;;;;4871021;29;20049;-73
2024/01/18 07:03:36;;;;;;;3.10;1.20;;;-1.40;99.90;;;;;;4882351;29;20128;-74
2024/01/18 07:06:03;;;;;;;2.58;1.15;;;-1.50;99.90;;;;;;4872560;29;20468;-74
2024/01/18 07:08:29;;;;;;;3.70;1.20;;;-1.50;99.90;;;;;;4866921;29;20042;-74
2024/01/18 07:10:55;;;;;;;3.90;1.60;;;-1.60;99.90;;;;;;4865598;29;20052;-73
2024/01/18 07:13:21;;;;;;;2.13;1.10;;;-1.60;99.90;;;;;;4878272;29;20416;-72
2024/01/18 07:15:46;;;;;;;3.17;1.30;;;-1.60;99.90;;;;;;4873503;29;20049;-72
2024/01/18 07:18:12;;;;;;;3.00;1.13;;;-1.60;99.90;;;;;;4878804;29;20064;-72
2024/01/18 07:20:38;;;;;;;4.78;1.35;;;-1.60;99.90;;;;;;4894394;29;20131;-72
2024/01/18 07:23:04;;;;;;;3.30;1.25;;;-1.60;99.90;;;;;;4870284;29;20517;-73
2024/01/18 07:25:30;;;;;;;5.22;1.77;;;-1.60;99.90;;;;;;4855338;29;20430;-72
2024/01/18 07:27:56;;;;;;;3.22;1.42;;;-1.60;99.90;;;;;;4865897;29;20153;-72
2024/01/18 07:30:22;;;;;;;4.03;1.42;;;-1.60;99.90;;;;;;4869726;29;20124;-72
2024/01/18 07:32:48;;;;;;;3.67;1.35;;;-1.70;99.90;;;;;;4873580;29;20127;-72
2024/01/18 07:35:14;;;;;;;4.25;1.92;;;-1.70;99.90;;;;;;4865331;29;20053;-72
2024/01/18 07:37:40;;;;;;;5.70;1.90;;;-1.80;99.90;;;;;;4852073;29;20165;-72
2024/01/18 07:40:06;;;;;;;6.07;1.70;;;-1.80;99.90;;;;;;4872311;29;20564;-72
2024/01/18 07:42:33;;;;;;;6.17;1.80;;;-1.80;99.90;;;;;;4867242;29;20517;-72
2024/01/18 07:44:58;;;;;;;3.25;1.80;;;-1.90;99.90;;;;;;4869562;29;20048;-73
2024/01/18 07:47:25;;;;;;;4.78;2.63;;;-1.90;99.90;;;;;;4859503;29;20040;-73
2024/01/18 07:49:50;;;;;;;11.23;5.82;;;-1.90;99.90;;;;;;4875383;29;20053;-73
2024/01/18 07:52:18;;;;;;;7.78;5.32;;;-1.90;99.90;;;;;;4881597;29;20060;-73
2024/01/18 07:54:43;;;;;;;9.25;6.35;;;-1.90;99.90;;;;;;4875964;29;20060;-71
2024/01/18 07:57:09;;;;;;;11.35;6.63;;;-2.00;99.90;;;;;;4871191;29;20037;-71
2024/01/18 07:59:36;;;;;;;15.45;6.57;;;-2.00;99.90;;;;;;4871458;29;20044;-72
2024/01/18 08:02:02;;;;;;;9.68;5.60;;;-2.00;99.90;;;;;;4868199;29;20068;-71
2024/01/18 08:04:29;;;;;;;8.85;5.65;;;-2.00;99.90;;;;;;4859813;29;20068;-71
2024/01/18 08:06:55;;;;;;;9.50;5.47;;;-2.00;99.90;;;;;;4868153;29;20052;-72
2024/01/18 08:09:21;;;;;;;10.27;5.68;;;-2.00;99.90;;;;;;4862735;29;20057;-72
2024/01/18 08:11:46;;;;;;;8.95;6.20;;;-2.00;99.90;;;;;;4873360;29;20059;-72
2024/01/18 08:14:13;;;;;;;9.68;5.57;;;-2.00;99.90;;;;;;4857423;29;20127;-71
2024/01/18 08:16:39;;;;;;;10.60;4.65;;;-2.00;99.90;;;;;;4885594;29;20057;-71
2024/01/18 08:19:05;;;;;;;9.23;3.88;;;-2.10;99.90;;;;;;4854824;29;20049;-71
2024/01/18 08:21:30;;;;;;;8.75;3.97;;;-2.10;99.90;;;;;;4857631;29;20115;-71
2024/01/18 08:23:56;;;;;;;5.88;3.15;;;-2.10;99.90;;;;;;4882580;29;20048;-72
2024/01/18 08:26:22;;;;;;;5.50;2.50;;;-2.10;99.90;;;;;;4881856;29;20085;-72
2024/01/18 08:28:47;;;;;;;5.00;2.42;;;-2.10;99.90;;;;;;4861476;29;20569;-74
2024/01/18 08:31:13;;;;;;;7.32;2.40;;;-2.10;99.90;;;;;;4876736;29;20507;-78
2024/01/18 08:33:40;;;;;;;7.03;2.22;;;-2.00;99.90;;;;;;4855470;29;20056;-77
2024/01/18 08:36:07;;;;;;;5.25;2.58;;;-2.00;99.90;;;;;;4849750;29;20045;-79
2024/01/18 08:38:33;;;;;;;7.05;2.40;;;-1.90;99.90;;;;;;4855830;29;20124;-79
2024/01/18 08:40:59;;;;;;;5.75;2.63;;;-1.90;99.90;;;;;;4857947;29;20182;-76
2024/01/18 08:43:27;;;;;;;5.97;2.53;;;-1.80;99.90;;;;;;4872474;29;20088;-75
2024/01/18 08:45:55;;;;;;;3.05;1.60;;;-1.80;99.90;;;;;;4856993;29;20128;-73
2024/01/18 08:48:21;;;;;;;4.50;1.85;;;-1.70;99.90;;;;;;4858434;29;20038;-77
2024/01/18 08:50:49;;;;;;;5.45;2.05;;;-1.70;99.90;;;;;;4873164;29;20056;-74
2024/01/18 08:53:15;;;;;;;3.38;1.80;;;-1.60;99.90;;;;;;4851348;29;20050;-74
2024/01/18 08:55:41;;;;;;;5.07;2.22;;;-1.60;99.90;;;;;;4851330;29;20052;-73
2024/01/18 08:58:07;;;;;;;4.38;2.15;;;-1.50;99.90;;;;;;4866548;29;20050;-74
2024/01/18 09:00:34;;;;;;;5.18;2.33;;;-1.50;99.90;;;;;;4858509;29;20045;-73
2024/01/18 09:03:00;;;;;;;4.90;1.77;;;-1.40;99.90;;;;;;4860895;29;20049;-73
2024/01/18 09:05:26;;;;;;;4.03;1.88;;;-1.40;99.90;;;;;;4858645;29;20128;-73
2024/01/18 09:07:52;;;;;;;3.92;2.28;;;-1.40;99.90;;;;;;4858023;29;20197;-77
2024/01/18 09:10:19;;;;;;;5.85;1.83;;;-1.30;99.90;;;;;;4860108;29;20034;-74
2024/01/18 09:12:45;;;;;;;4.00;1.90;;;-1.30;99.90;;;;;;4863697;29;20134;-73
2024/01/18 09:15:11;;;;;;;4.15;1.98;;;-1.30;99.90;;;;;;4862159;29;20409;-74
2024/01/18 09:17:37;;;;;;;4.68;2.22;;;-1.20;99.90;;;;;;4872554;29;20052;-75
2024/01/18 09:20:03;;;;;;;8.48;2.92;;;-1.20;99.90;;;;;;4856953;29;20577;-74
2024/01/18 09:22:29;;;;;;;5.80;2.90;;;-1.20;99.90;;;;;;4865273;29;20053;-75
2024/01/18 09:24:54;;;;;;;4.78;3.10;;;-1.30;99.90;;;;;;4867538;29;20051;-74
2024/01/18 09:27:22;;;;;;;8.35;3.25;;;-1.20;99.90;;;;;;4854705;29;20426;-74
2024/01/18 09:29:48;;;;;;;6.53;3.45;;;-1.20;99.90;;;;;;4860412;29;20053;-74
2024/01/18 09:32:15;;;;;;;9.05;3.53;;;-1.20;99.90;;;;;;4866687;29;20111;-75
2024/01/18 09:34:40;;;;;;;7.28;3.63;;;-1.20;99.90;;;;;;4871410;29;20282;-77
2024/01/18 09:37:06;;;;;;;8.68;4.30;;;-1.10;99.90;;;;;;4862742;29;20509;-75
2024/01/18 09:39:32;;;;;;;9.80;4.45;;;-1.10;99.90;;;;;;4859889;29;20088;-77
2024/01/18 09:41:58;;;;;;;7.60;3.42;;;-1.00;99.90;;;;;;4859165;29;20048;-73
2024/01/18 09:44:30;;;;;;;7.32;3.67;;;-0.90;99.90;;;;;;4869687;29;20496;-73
2024/01/18 09:46:57;;;;;;;6.40;3.45;;;-0.90;99.90;;;;;;4860248;29;20060;-73
2024/01/18 09:49:23;;;;;;;7.90;3.33;;;-0.90;99.90;;;;;;4864114;29;20049;-73
2024/01/18 09:51:50;;;;;;;7.88;3.75;;;-0.80;99.90;;;;;;4855790;29;20497;-72
2024/01/18 09:54:17;;;;;;;7.82;2.95;;;-0.70;99.90;;;;;;4861183;29;20083;-72
2024/01/18 09:56:45;;;;;;;6.90;2.95;;;-0.70;99.90;;;;;;4850279;29;20052;-72
2024/01/18 09:59:21;;;;;;;6.63;3.20;;;-0.70;99.90;;;;;;4859534;29;20045;-72
2024/01/18 10:01:48;;;;;;;4.63;3.33;;;-0.60;99.90;;;;;;4872014;29;20093;-71
2024/01/18 10:04:17;;;;;;;4.97;3.00;;;-0.60;99.90;;;;;;4866997;29;20410;-72
2024/01/18 10:06:42;;;;;;;7.63;2.88;;;-0.60;99.90;;;;;;4849336;29;20131;-72
2024/01/18 10:09:14;;;;;;;6.35;3.45;;;-0.60;99.90;;;;;;4873829;29;20147;-72
2024/01/18 10:11:46;;;;;;;6.95;2.70;;;-0.60;99.90;;;;;;4851028;29;20049;-72
2024/01/18 10:14:12;;;;;;;6.70;2.40;;;-0.50;99.90;;;;;;4859550;29;20049;-72
2024/01/18 10:16:40;;;;;;;12.98;3.35;;;-0.50;99.90;;;;;;4879761;29;20041;-72
2024/01/18 10:19:18;;;;;;;5.68;2.50;;;-0.40;99.90;;;;;;4852825;29;20109;-72
2024/01/18 10:21:46;;;;;;;5.90;2.10;;;-0.40;99.90;;;;;;4846030;29;20057;-72
2024/01/18 10:24:13;;;;;;;2.83;1.85;;;-0.30;99.90;;;;;;4872912;29;20041;-73
2024/01/18 10:26:40;;;;;;;3.30;1.90;;;-0.20;99.90;;;;;;4860350;29;20392;-72
2024/01/18 10:29:08;;;;;;;6.47;1.92;;;-0.10;99.90;;;;;;4851977;29;20125;-72
2024/01/18 10:31:37;;;;;;;4.18;1.52;;;-0.10;99.90;;;;;;4854795;29;20057;-72
2024/01/18 10:34:02;;;;;;;3.22;1.52;;;0.00;99.90;;;;;;4848598;29;20075;-72
2024/01/18 10:36:28;;;;;;;3.17;1.55;;;0.00;99.90;;;;;;4877198;29;20045;-72
2024/01/18 10:38:54;;;;;;;4.88;1.85;;;0.10;99.90;;;;;;4873476;29;20544;-73
2024/01/18 10:41:20;;;;;;;5.30;2.05;;;0.20;99.90;;;;;;4873623;29;20113;-73
2024/01/18 10:43:48;;;;;;;7.88;1.90;;;0.30;99.90;;;;;;4845490;29;20097;-75
2024/01/18 10:46:14;;;;;;;6.13;1.55;;;0.30;99.90;;;;;;4849504;29;20065;-73
2024/01/18 10:48:45;;;;;;;5.30;1.90;;;0.50;99.90;;;;;;4865263;29;20083;-74
2024/01/18 10:51:11;;;;;;;3.88;1.40;;;0.50;99.90;;;;;;4857372;29;20053;-75
2024/01/18 10:53:38;;;;;;;5.57;1.20;;;0.60;99.90;;;;;;4873802;29;20045;-76
2024/01/18 10:56:04;;;;;;;6.07;1.48;;;0.70;99.90;;;;;;4867471;29;20126;-73
2024/01/18 10:58:30;;;;;;;4.70;1.65;;;0.70;99.90;;;;;;4869811;29;20093;-73
2024/01/18 11:00:57;;;;;;;3.05;1.42;;;0.70;99.90;;;;;;4856686;29;20057;-74
2024/01/18 11:03:23;;;;;;;4.55;1.65;;;0.70;99.90;;;;;;4864879;29;20100;-74
2024/01/18 11:05:49;;;;;;;5.13;1.77;;;0.80;99.90;;;;;;4883012;29;20627;-75
2024/01/18 11:08:19;;;;;;;8.77;1.80;;;0.90;99.90;;;;;;4869529;29;20041;-77
2024/01/18 11:10:46;;;;;;;3.95;1.60;;;0.90;99.90;;;;;;4862389;29;20116;-78
2024/01/18 11:13:15;;;;;;;5.38;1.52;;;1.00;99.90;;;;;;4856030;29;20044;-78
2024/01/18 11:15:42;;;;;;;6.03;2.08;;;1.00;99.90;;;;;;4873438;29;20127;-78
2024/01/18 11:18:10;;;;;;;4.13;1.98;;;1.00;99.90;;;;;;4881442;29;20061;-77
2024/01/18 11:20:59;;;;;;;2.88;1.52;;;1.10;99.90;;;;;;4859998;29;20072;-76
2024/01/18 11:23:28;;;;;;;2.15;1.20;;;1.20;99.90;;;;;;4864674;29;20105;-76
2024/01/18 11:25:54;;;;;;;4.75;1.08;;;1.20;99.90;;;;;;4863566;29;20105;-74
2024/01/18 11:28:24;;;;;;;4.00;1.25;;;1.30;99.90;;;;;;4876536;29;20044;-73
2024/01/18 11:30:50;;;;;;;3.28;1.27;;;1.40;99.90;;;;;;4882504;29;20055;-74
2024/01/18 11:33:15;;;;;;;2.17;1.13;;;1.50;99.90;;;;;;4859175;29;20128;-74
2024/01/18 11:35:42;;;;;;;5.28;1.23;;;1.60;99.90;;;;;;4876347;29;20423;-73
2024/01/18 11:38:18;;;;;;;5.47;1.10;;;1.70;99.90;;;;;;4868254;29;20053;-73
2024/01/18 11:40:44;;;;;;;2.75;1.48;;;1.70;99.90;;;;;;4866967;29;20057;-83
2024/01/18 11:43:13;;;;;;;3.35;1.02;;;1.90;99.90;;;;;;4861394;29;20049;-74
2024/01/18 11:45:38;;;;;;;4.28;1.50;;;2.00;99.90;;;;;;4858060;29;20043;-72
2024/01/18 11:48:04;;;;;;;5.97;1.20;;;2.10;99.90;;;;;;4866459;29;20053;-72
2024/01/18 11:50:30;;;;;;;2.03;0.90;;;2.20;99.90;;;;;;4866179;29;20041;-72
2024/01/18 11:52:56;;;;;;;3.58;1.08;;;2.20;99.90;;;;;;4841885;29;20052;-72
2024/01/18 11:55:24;;;;;;;1.20;0.88;;;2.30;99.90;;;;;;4870150;29;20045;-72
2024/01/18 11:57:52;;;;;;;4.97;0.98;;;2.30;99.90;;;;;;4849421;29;20069;-72
2024/01/18 12:00:19;;;;;;;4.65;0.90;;;2.30;99.90;;;;;;4873926;29;20508;-72
2024/01/18 12:02:45;;;;;;;3.10;1.00;;;2.40;99.90;;;;;;4863298;29;20536;-72
2024/01/18 12:05:10;;;;;;;1.75;0.88;;;2.40;99.90;;;;;;4875371;29;20321;-74
2024/01/18 12:07:38;;;;;;;2.28;0.60;;;2.50;99.90;;;;;;4856336;29;20109;-72
2024/01/18 12:10:06;;;;;;;3.13;0.60;;;2.50;99.90;;;;;;4870871;29;20057;-73
2024/01/18 12:12:32;;;;;;;1.98;0.70;;;2.60;99.90;;;;;;4866946;29;20494;-73
2024/01/18 12:14:57;;;;;;;3.40;0.95;;;2.60;99.90;;;;;;4853522;29;20201;-74
2024/01/18 12:17:23;;;;;;;2.72;0.60;;;2.70;99.90;;;;;;4850768;29;20049;-73
2024/01/18 12:19:49;;;;;;;2.10;0.55;;;2.70;99.90;;;;;;4860230;29;20390;-74
2024/01/18 12:22:18;;;;;;;2.30;0.52;;;2.70;99.90;;;;;;4853952;29;20509;-73
2024/01/18 12:24:48;;;;;;;0.77;0.55;;;2.80;99.90;;;;;;4871184;29;20048;-73
2024/01/18 12:27:14;;;;;;;2.30;0.52;;;2.80;99.90;;;;;;4871579;29;20252;-73
2024/01/18 12:29:41;;;;;;;0.82;0.30;;;2.90;99.90;;;;;;4870863;29;20574;-76
2024/01/18 12:32:10;;;;;;;1.77;0.57;;;3.00;99.90;;;;;;4855022;29;20721;-74
2024/01/18 12:34:37;;;;;;;2.10;0.70;;;3.00;99.90;;;;;;4851247;29;20153;-73
2024/01/18 12:37:03;;;;;;;0.90;0.60;;;3.00;99.90;;;;;;4844336;29;20045;-71
2024/01/18 12:39:30;;;;;;;0.98;0.68;;;3.00;99.90;;;;;;4839433;29;20062;-74